createdAt,value
2022-11-28T00:01:36.325Z,6.77
2022-11-28T00:04:06.803Z,6.07
2022-11-28T00:06:38.000Z,5.80
2022-11-28T00:09:06.702Z,5.27
2022-11-28T00:11:35.217Z,5.63
2022-11-28T00:14:03.674Z,5.30
2022-11-28T00:16:32.344Z,5.27
2022-11-28T00:19:01.574Z,5.93
2022-11-28T00:21:32.156Z,5.83
2022-11-28T00:24:01.430Z,5.50
2022-11-28T00:26:31.231Z,5.63
2022-11-28T00:29:00.606Z,5.97
2022-11-28T00:31:30.200Z,7.17
2022-11-28T00:33:59.014Z,7.30
2022-11-28T00:36:27.436Z,6.87
2022-11-28T00:38:57.581Z,7.00
2022-11-28T00:41:27.056Z,6.50
2022-11-28T00:43:55.701Z,5.83
2022-11-28T00:46:24.692Z,6.83
2022-11-28T00:48:53.355Z,6.70
2022-11-28T00:51:22.635Z,6.27
2022-11-28T00:53:52.080Z,6.67
2022-11-28T00:56:23.083Z,6.43
2022-11-28T00:58:51.720Z,6.43
2022-11-28T01:01:21.717Z,5.93
2022-11-28T01:03:50.972Z,5.70
2022-11-28T01:06:23.068Z,5.53
2022-11-28T01:08:51.511Z,5.77
2022-11-28T01:11:19.950Z,5.00
2022-11-28T01:13:49.978Z,4.80
2022-11-28T01:16:18.471Z,4.90
2022-11-28T01:18:47.007Z,4.60
2022-11-28T01:21:15.447Z,4.93
2022-11-28T01:23:44.418Z,5.53
2022-11-28T01:26:14.409Z,5.60
2022-11-28T01:28:42.868Z,6.20
2022-11-28T01:31:13.920Z,6.17
2022-11-28T01:33:42.459Z,5.67
2022-11-28T01:36:12.111Z,5.33
2022-11-28T01:38:40.737Z,5.07
2022-11-28T01:41:09.470Z,4.47
2022-11-28T01:43:38.168Z,5.03
2022-11-28T01:46:07.543Z,5.30
2022-11-28T01:48:40.260Z,5.87
2022-11-28T01:51:10.878Z,5.40
2022-11-28T01:53:41.642Z,6.10
2022-11-28T01:56:11.262Z,4.97
2022-11-28T01:58:41.499Z,5.97
2022-11-28T02:01:10.345Z,5.57
2022-11-28T02:03:43.871Z,5.70
2022-11-28T02:06:12.433Z,5.53
2022-11-28T02:08:40.948Z,6.33
2022-11-28T02:11:14.511Z,8.10
2022-11-28T02:13:47.251Z,7.93
2022-11-28T02:16:24.547Z,6.33
2022-11-28T02:18:59.157Z,5.97
2022-11-28T02:21:40.233Z,5.60
2022-11-28T02:24:31.714Z,5.07
2022-11-28T02:27:30.261Z,5.57
2022-11-28T02:30:05.233Z,5.97
2022-11-28T02:32:42.561Z,7.63
2022-11-28T02:35:13.598Z,7.57
2022-11-28T02:37:45.533Z,7.57
2022-11-28T02:40:18.279Z,7.60
2022-11-28T02:42:52.661Z,7.97
2022-11-28T02:45:25.942Z,8.63
2022-11-28T02:47:59.840Z,7.73
2022-11-28T02:50:30.561Z,7.87
2022-11-28T02:53:01.810Z,6.30
2022-11-28T02:55:30.202Z,6.60
2022-11-28T02:57:58.777Z,6.00
2022-11-28T03:00:30.054Z,5.60
2022-11-28T03:03:10.030Z,6.23
2022-11-28T03:05:42.784Z,6.20
2022-11-28T03:08:20.488Z,6.47
2022-11-28T03:10:52.826Z,5.83
2022-11-28T03:13:24.030Z,6.93
2022-11-28T03:15:57.486Z,7.87
2022-11-28T03:18:29.757Z,6.60
2022-11-28T03:20:58.989Z,6.63
2022-11-28T03:23:32.634Z,7.20
2022-11-28T03:26:02.123Z,8.07
2022-11-28T03:28:33.469Z,7.40
2022-11-28T03:31:03.907Z,9.50
2022-11-28T03:33:36.221Z,9.83
2022-11-28T03:36:06.123Z,9.27
2022-11-28T03:38:38.274Z,9.47
2022-11-28T03:41:09.703Z,11.40
2022-11-28T03:43:42.057Z,10.07
2022-11-28T03:46:13.342Z,11.03
2022-11-28T03:48:45.946Z,11.37
2022-11-28T03:51:16.868Z,12.60
2022-11-28T03:53:50.275Z,12.00
2022-11-28T03:56:21.805Z,12.43
2022-11-28T03:58:54.812Z,10.37
2022-11-28T04:01:29.476Z,10.33
2022-11-28T04:04:01.951Z,10.97
2022-11-28T04:06:33.398Z,9.13
2022-11-28T04:09:04.273Z,9.20
2022-11-28T04:11:35.642Z,9.33
2022-11-28T04:14:06.548Z,9.30
2022-11-28T04:16:37.095Z,9.57
2022-11-28T04:19:09.501Z,9.50
2022-11-28T04:21:42.225Z,10.03
2022-11-28T04:24:12.654Z,11.23
2022-11-28T04:26:43.180Z,9.67
2022-11-28T04:29:12.899Z,9.27
2022-11-28T04:31:43.014Z,8.70
2022-11-28T04:34:16.783Z,7.93
2022-11-28T04:36:45.935Z,8.10
2022-11-28T04:39:16.273Z,7.67
2022-11-28T04:41:47.274Z,7.77
2022-11-28T04:44:18.808Z,8.57
2022-11-28T04:46:49.478Z,8.77
2022-11-28T04:49:19.484Z,9.20
2022-11-28T04:51:51.885Z,10.87
2022-11-28T04:54:22.619Z,11.77
2022-11-28T04:56:54.708Z,12.43
2022-11-28T04:59:24.140Z,14.17
2022-11-28T05:01:52.580Z,15.63
2022-11-28T05:04:22.537Z,15.70
2022-11-28T05:06:51.019Z,15.00
2022-11-28T05:09:19.409Z,15.17
2022-11-28T05:11:47.969Z,18.07
2022-11-28T05:14:18.964Z,17.67
2022-11-28T05:16:47.511Z,18.17
2022-11-28T05:19:16.011Z,19.27
2022-11-28T05:21:46.120Z,20.80
2022-11-28T05:24:14.928Z,21.37
2022-11-28T05:26:43.450Z,22.90
2022-11-28T05:29:11.933Z,24.37
2022-11-28T05:31:40.422Z,24.83
2022-11-28T05:34:09.121Z,24.63
2022-11-28T05:36:37.614Z,36.23
2022-11-28T05:39:07.586Z,73.93
2022-11-28T05:41:36.118Z,29.53
2022-11-28T05:44:04.761Z,25.57
2022-11-28T05:46:33.211Z,25.27
2022-11-28T05:49:01.726Z,24.23
2022-11-28T05:51:30.219Z,24.20
2022-11-28T05:53:58.648Z,25.00
2022-11-28T05:56:28.432Z,25.47
2022-11-28T05:58:56.813Z,25.83
2022-11-28T06:01:26.667Z,25.50
2022-11-28T06:03:59.914Z,25.63
2022-11-28T06:06:29.280Z,24.50
2022-11-28T06:08:58.019Z,25.37
2022-11-28T06:11:29.365Z,25.43
2022-11-28T06:13:57.997Z,24.63
2022-11-28T06:16:27.775Z,24.97
2022-11-28T06:18:57.050Z,24.10
2022-11-28T06:21:26.074Z,23.20
2022-11-28T06:23:54.938Z,22.60
2022-11-28T06:26:24.844Z,23.57
2022-11-28T06:28:55.506Z,24.43
2022-11-28T06:31:24.944Z,23.67
2022-11-28T06:33:53.369Z,23.57
2022-11-28T06:36:22.074Z,22.13
2022-11-28T06:38:50.711Z,20.87
2022-11-28T06:41:20.488Z,17.53
2022-11-28T06:43:48.984Z,17.90
2022-11-28T06:46:20.026Z,20.30
2022-11-28T06:48:48.981Z,18.60
2022-11-28T06:51:17.904Z,19.90
2022-11-28T06:53:46.350Z,18.13
2022-11-28T06:56:16.287Z,18.27
2022-11-28T06:58:45.315Z,18.20
2022-11-28T07:01:14.538Z,17.53
2022-11-28T07:03:44.959Z,18.30
2022-11-28T07:06:14.141Z,20.07
2022-11-28T07:08:42.961Z,17.57
2022-11-28T07:11:12.482Z,18.87
2022-11-28T07:13:40.945Z,16.80
2022-11-28T07:16:09.639Z,12.60
2022-11-28T07:18:38.648Z,12.83
2022-11-28T07:21:08.645Z,13.13
2022-11-28T07:23:37.107Z,12.20
2022-11-28T07:26:06.042Z,11.57
2022-11-28T07:28:34.947Z,13.37
2022-11-28T07:31:04.225Z,12.00
2022-11-28T07:33:32.924Z,13.13
2022-11-28T07:36:02.066Z,12.83
2022-11-28T07:38:31.931Z,14.30
2022-11-28T07:41:04.325Z,12.43
2022-11-28T07:43:32.728Z,10.77
2022-11-28T07:46:01.775Z,10.13
2022-11-28T07:48:30.362Z,7.87
2022-11-28T07:50:58.858Z,8.93
2022-11-28T07:53:27.584Z,9.73
2022-11-28T07:55:57.384Z,9.87
2022-11-28T07:58:25.871Z,9.73
2022-11-28T08:00:54.368Z,9.00
2022-11-28T08:03:23.185Z,8.10
2022-11-28T08:05:51.707Z,8.10
2022-11-28T08:08:20.679Z,7.70
2022-11-28T08:10:49.154Z,8.47
2022-11-28T08:13:19.106Z,8.83
2022-11-28T08:15:47.516Z,9.80
2022-11-28T08:18:15.994Z,9.70
2022-11-28T08:20:44.501Z,8.60
2022-11-28T08:23:12.981Z,9.73
2022-11-28T08:25:41.639Z,8.60
2022-11-28T08:28:10.100Z,11.60
2022-11-28T08:30:39.999Z,8.90
2022-11-28T08:33:08.458Z,7.20
2022-11-28T08:35:36.797Z,7.87
2022-11-28T08:38:05.211Z,8.00
2022-11-28T08:40:33.672Z,9.03
2022-11-28T08:43:02.150Z,10.13
2022-11-28T08:45:30.726Z,12.20
2022-11-28T08:48:01.872Z,14.77
2022-11-28T08:50:30.357Z,16.30
2022-11-28T08:53:01.773Z,17.53
2022-11-28T08:55:40.539Z,17.83
2022-11-28T08:58:10.474Z,20.67
2022-11-28T09:00:39.080Z,19.93
2022-11-28T09:03:08.872Z,19.67
2022-11-28T09:05:37.448Z,19.77
2022-11-28T09:08:10.225Z,20.63
2022-11-28T09:10:41.255Z,21.07
2022-11-28T09:13:10.061Z,21.23
2022-11-28T09:15:40.961Z,21.23
2022-11-28T09:18:11.106Z,23.20
2022-11-28T09:20:39.729Z,22.50
2022-11-28T09:23:08.277Z,21.73
2022-11-28T09:25:36.748Z,22.00
2022-11-28T09:28:05.350Z,20.83
2022-11-28T09:30:34.420Z,20.97
2022-11-28T09:33:03.020Z,19.70
2022-11-28T09:35:32.844Z,20.77
2022-11-28T09:38:01.288Z,19.83
2022-11-28T09:40:33.870Z,18.93
2022-11-28T09:43:03.146Z,17.63
2022-11-28T09:45:33.224Z,14.50
2022-11-28T09:48:17.306Z,13.47
2022-11-28T09:50:48.146Z,11.90
2022-11-28T09:53:24.166Z,8.90
2022-11-28T09:55:54.409Z,7.33
2022-11-28T09:58:26.867Z,13.97
2022-11-28T10:00:57.922Z,17.07
2022-11-28T10:03:35.008Z,21.43
2022-11-28T10:06:09.476Z,21.67
2022-11-28T10:08:41.178Z,22.50
2022-11-28T10:11:13.674Z,23.40
2022-11-28T10:14:07.113Z,25.17
2022-11-28T10:16:42.525Z,29.80
2022-11-28T10:19:31.540Z,33.30
2022-11-28T10:22:05.214Z,30.20
2022-11-28T10:24:38.076Z,32.13
2022-11-28T10:27:07.970Z,31.47
2022-11-28T10:29:41.924Z,32.00
2022-11-28T10:32:14.036Z,29.93
2022-11-28T10:34:45.371Z,30.50
2022-11-28T10:37:17.873Z,32.27
2022-11-28T10:39:47.159Z,32.77
2022-11-28T10:42:18.280Z,33.93
2022-11-28T10:44:51.927Z,31.37
2022-11-28T10:47:24.216Z,31.37
2022-11-28T10:49:56.374Z,32.00
2022-11-28T10:52:28.234Z,29.60
2022-11-28T10:55:09.401Z,30.13
2022-11-28T10:57:41.304Z,29.33
2022-11-28T11:00:12.893Z,27.70
2022-11-28T11:02:43.280Z,29.53
2022-11-28T11:05:14.554Z,32.47
2022-11-28T11:07:48.999Z,31.47
2022-11-28T11:10:19.409Z,29.40
2022-11-28T11:12:48.305Z,29.37
2022-11-28T11:15:18.345Z,27.43
2022-11-28T11:17:46.828Z,30.07
2022-11-28T11:20:29.958Z,28.17
2022-11-28T11:23:00.865Z,28.57
2022-11-28T11:25:30.213Z,28.63
2022-11-28T11:28:01.033Z,29.73
2022-11-28T11:30:30.902Z,28.40
2022-11-28T11:33:00.606Z,28.33
2022-11-28T11:35:30.763Z,28.07
2022-11-28T11:38:16.858Z,28.93
2022-11-28T11:40:45.639Z,28.23
2022-11-28T11:43:25.735Z,29.00
2022-11-28T11:46:06.721Z,28.67
2022-11-28T11:48:38.860Z,28.43
2022-11-28T11:51:08.018Z,29.43
2022-11-28T11:53:37.828Z,28.67
2022-11-28T11:56:06.290Z,30.27
2022-11-28T11:58:38.770Z,29.53
2022-11-28T12:01:08.093Z,28.30
2022-11-28T12:03:41.586Z,27.20
2022-11-28T12:06:15.225Z,27.27
2022-11-28T12:08:46.941Z,28.00
2022-11-28T12:11:17.417Z,26.90
2022-11-28T12:13:45.955Z,28.17
2022-11-28T12:16:23.366Z,27.97
2022-11-28T12:18:57.679Z,31.50
2022-11-28T12:21:29.121Z,28.83
2022-11-28T12:24:05.990Z,27.60
2022-11-28T12:26:37.988Z,29.13
2022-11-28T12:29:13.073Z,27.13
2022-11-28T12:31:48.239Z,27.20
2022-11-28T12:34:24.999Z,28.73
2022-11-28T12:37:00.791Z,29.40
2022-11-28T12:39:35.468Z,27.63
2022-11-28T12:42:12.012Z,28.00
2022-11-28T12:44:55.659Z,27.83
2022-11-28T12:47:31.038Z,31.57
2022-11-28T12:50:04.961Z,31.73
2022-11-28T12:52:37.595Z,28.90
2022-11-28T12:55:20.636Z,29.50
2022-11-28T12:57:53.259Z,28.43
2022-11-28T13:00:22.828Z,28.63
2022-11-28T13:03:03.678Z,28.33
2022-11-28T13:05:36.487Z,28.33
2022-11-28T13:08:09.505Z,29.97
2022-11-28T13:10:42.147Z,43.77
2022-11-28T13:13:12.698Z,31.07
2022-11-28T13:15:48.268Z,27.27
2022-11-28T13:18:21.779Z,27.37
2022-11-28T13:20:54.367Z,29.13
2022-11-28T13:23:26.070Z,27.00
2022-11-28T13:25:59.036Z,27.50
2022-11-28T13:28:32.660Z,27.80
2022-11-28T13:31:05.849Z,29.60
2022-11-28T13:33:40.126Z,30.17
2022-11-28T13:36:10.929Z,30.83
2022-11-28T13:39:00.279Z,31.27
2022-11-28T13:42:09.568Z,30.90
2022-11-28T13:44:30.957Z,33.27
2022-11-28T13:46:59.516Z,29.23
2022-11-28T13:49:29.678Z,29.43
2022-11-28T13:52:24.914Z,28.43
2022-11-28T13:54:54.356Z,29.23
2022-11-28T13:57:25.666Z,28.63
2022-11-28T13:59:55.504Z,27.10
2022-11-28T14:02:25.916Z,29.00
2022-11-28T14:04:54.453Z,29.00
2022-11-28T14:07:24.524Z,28.37
2022-11-28T14:09:57.420Z,26.73
2022-11-28T14:12:29.521Z,27.63
2022-11-28T14:15:06.589Z,26.87
2022-11-28T14:17:51.225Z,26.90
2022-11-28T14:20:26.352Z,28.93
2022-11-28T14:23:04.362Z,27.67
2022-11-28T14:25:33.880Z,26.13
2022-11-28T14:28:04.781Z,28.30
2022-11-28T14:30:34.922Z,28.47
2022-11-28T14:33:04.710Z,29.10
2022-11-28T14:35:51.661Z,28.87
2022-11-28T14:38:34.929Z,28.27
2022-11-28T14:41:04.230Z,27.60
2022-11-28T14:43:34.716Z,27.37
2022-11-28T14:46:33.118Z,27.67
2022-11-28T14:49:19.062Z,26.53
2022-11-28T14:52:30.965Z,27.53
2022-11-28T14:54:55.411Z,27.33
2022-11-28T14:57:26.064Z,27.97
2022-11-28T14:59:56.683Z,29.67
2022-11-28T15:02:38.139Z,28.23
2022-11-28T15:05:15.600Z,28.70
2022-11-28T15:07:50.004Z,28.80
2022-11-28T15:10:22.220Z,28.63
2022-11-28T15:12:56.978Z,28.10
2022-11-28T15:15:26.873Z,31.27
2022-11-28T15:17:56.043Z,30.53
2022-11-28T15:20:27.922Z,27.20
2022-11-28T15:22:56.423Z,28.10
2022-11-28T15:25:25.912Z,28.57
2022-11-28T15:27:55.500Z,27.97
2022-11-28T15:30:26.528Z,29.10
2022-11-28T15:32:57.612Z,29.23
2022-11-28T15:35:26.149Z,32.10
2022-11-28T15:37:56.611Z,29.57
2022-11-28T15:40:27.278Z,29.80
2022-11-28T15:42:56.060Z,30.07
2022-11-28T15:45:26.026Z,32.27
2022-11-28T15:47:55.252Z,33.00
2022-11-28T15:50:26.419Z,34.10
2022-11-28T15:52:55.609Z,35.00
2022-11-28T15:55:24.299Z,38.33
2022-11-28T15:57:52.775Z,33.60
2022-11-28T16:00:22.060Z,38.00
2022-11-28T16:02:50.632Z,34.70
2022-11-28T16:05:21.307Z,35.73
2022-11-28T16:07:52.256Z,41.03
2022-11-28T16:10:25.619Z,39.70
2022-11-28T16:13:00.177Z,41.47
2022-11-28T16:15:29.142Z,39.33
2022-11-28T16:17:57.985Z,44.60
2022-11-28T16:20:27.617Z,42.07
2022-11-28T16:23:02.639Z,44.20
2022-11-28T16:25:32.670Z,43.27
2022-11-28T16:28:01.342Z,42.40
2022-11-28T16:30:39.624Z,34.13
2022-11-28T16:33:22.990Z,31.80
2022-11-28T16:35:51.568Z,28.60
2022-11-28T16:38:24.039Z,28.87
2022-11-28T16:40:52.786Z,30.43
2022-11-28T16:43:23.053Z,36.37
2022-11-28T16:46:00.281Z,34.30
2022-11-28T16:48:29.801Z,46.27
2022-11-28T16:51:16.584Z,42.27
2022-11-28T16:53:47.870Z,40.17
2022-11-28T16:56:25.609Z,30.83
2022-11-28T16:58:55.681Z,30.87
2022-11-28T17:01:25.462Z,29.37
2022-11-28T17:03:55.589Z,28.93
2022-11-28T17:06:28.664Z,30.10
2022-11-28T17:08:58.702Z,30.53
2022-11-28T17:11:29.276Z,29.53
2022-11-28T17:13:58.421Z,29.87
2022-11-28T17:16:28.505Z,29.30
2022-11-28T17:18:57.479Z,31.97
2022-11-28T17:21:29.134Z,33.13
2022-11-28T17:23:59.084Z,32.17
2022-11-28T17:26:27.482Z,31.20
2022-11-28T17:28:55.914Z,126.03
2022-11-28T17:31:24.767Z,63.37
2022-11-28T17:33:53.190Z,31.70
2022-11-28T17:36:21.664Z,29.73
2022-11-28T17:38:50.079Z,28.57
2022-11-28T17:41:19.997Z,31.77
2022-11-28T17:43:48.473Z,31.50
2022-11-28T17:46:16.957Z,29.43
2022-11-28T17:48:45.400Z,30.43
2022-11-28T17:51:13.893Z,34.63
2022-11-28T17:53:42.411Z,36.43
2022-11-28T17:56:12.103Z,33.57
2022-11-28T17:58:41.974Z,31.70
2022-11-28T18:01:14.235Z,38.33
2022-11-28T18:03:42.835Z,36.10
2022-11-28T18:06:16.666Z,35.80
2022-11-28T18:08:45.095Z,32.07
2022-11-28T18:11:13.803Z,31.23
2022-11-28T18:13:43.906Z,32.87
2022-11-28T18:16:12.904Z,33.57
2022-11-28T18:18:41.560Z,32.73
2022-11-28T18:21:10.046Z,31.20
2022-11-28T18:23:39.497Z,29.97
2022-11-28T18:26:08.854Z,32.60
2022-11-28T18:28:37.382Z,32.17
2022-11-28T18:31:11.945Z,33.93
2022-11-28T18:33:40.554Z,33.07
2022-11-28T18:36:12.527Z,31.67
2022-11-28T18:38:41.270Z,32.53
2022-11-28T18:41:10.829Z,31.20
2022-11-28T18:43:39.685Z,31.77
2022-11-28T18:46:09.224Z,35.97
2022-11-28T18:48:39.791Z,36.40
2022-11-28T18:51:12.199Z,37.50
2022-11-28T18:53:40.813Z,38.13
2022-11-28T18:56:09.737Z,36.70
2022-11-28T18:58:39.224Z,37.13
2022-11-28T19:01:11.643Z,51.57
2022-11-28T19:03:41.922Z,36.37
2022-11-28T19:06:13.635Z,35.53
2022-11-28T19:08:42.198Z,35.10
2022-11-28T19:11:13.195Z,34.03
2022-11-28T19:13:41.796Z,32.47
2022-11-28T19:16:11.322Z,32.43
2022-11-28T19:18:41.547Z,30.87
2022-11-28T19:21:10.508Z,33.80
2022-11-28T19:23:39.362Z,31.30
2022-11-28T19:26:08.962Z,30.37
2022-11-28T19:28:37.446Z,30.07
2022-11-28T19:31:09.488Z,31.07
2022-11-28T19:33:37.924Z,32.60
2022-11-28T19:36:09.258Z,30.97
2022-11-28T19:38:38.354Z,31.73
2022-11-28T19:41:07.787Z,32.73
2022-11-28T19:43:36.292Z,33.73
2022-11-28T19:46:05.097Z,33.93
2022-11-28T19:48:34.538Z,32.10
2022-11-28T19:51:03.496Z,33.33
2022-11-28T19:53:34.155Z,32.17
2022-11-28T19:56:04.132Z,33.17
2022-11-28T19:58:32.681Z,32.47
2022-11-28T20:01:05.977Z,33.60
2022-11-28T20:03:34.838Z,35.73
2022-11-28T20:06:03.492Z,35.63
2022-11-28T20:08:33.360Z,32.67
2022-11-28T20:11:08.070Z,34.50
2022-11-28T20:13:36.577Z,32.73
2022-11-28T20:16:05.513Z,33.13
2022-11-28T20:18:33.993Z,32.70
2022-11-28T20:21:06.876Z,33.23
2022-11-28T20:23:40.230Z,33.73
2022-11-28T20:26:08.890Z,33.90
2022-11-28T20:28:38.284Z,34.27
2022-11-28T20:31:07.635Z,33.67
2022-11-28T20:33:36.056Z,35.17
2022-11-28T20:36:08.495Z,34.67
2022-11-28T20:38:38.621Z,34.40
2022-11-28T20:41:07.981Z,32.27
2022-11-28T20:43:37.650Z,33.77
2022-11-28T20:46:06.571Z,33.83
2022-11-28T20:48:35.153Z,34.30
2022-11-28T20:51:03.627Z,34.20
2022-11-28T20:53:33.201Z,33.13
2022-11-28T20:56:03.753Z,33.63
2022-11-28T20:58:32.967Z,32.67
2022-11-28T21:01:01.495Z,33.63
2022-11-28T21:03:30.021Z,33.90
2022-11-28T21:06:01.249Z,35.63
2022-11-28T21:08:31.296Z,35.07
2022-11-28T21:10:59.893Z,33.40
2022-11-28T21:13:29.733Z,31.47
2022-11-28T21:15:58.573Z,32.57
2022-11-28T21:18:27.087Z,31.17
2022-11-28T21:20:55.493Z,30.13
2022-11-28T21:23:23.866Z,31.20
2022-11-28T21:25:52.242Z,32.63
2022-11-28T21:28:20.766Z,32.40
2022-11-28T21:30:50.563Z,36.13
2022-11-28T21:33:19.050Z,37.20
2022-11-28T21:35:47.554Z,34.47
2022-11-28T21:38:16.012Z,33.80
2022-11-28T21:40:44.467Z,35.47
2022-11-28T21:43:12.846Z,37.23
2022-11-28T21:45:41.390Z,37.67
2022-11-28T21:48:11.357Z,36.20
2022-11-28T21:50:39.930Z,35.77
2022-11-28T21:53:08.455Z,35.90
2022-11-28T21:55:38.657Z,37.73
2022-11-28T21:58:07.125Z,40.07
2022-11-28T22:00:52.576Z,35.27
2022-11-28T22:03:23.352Z,34.83
2022-11-28T22:05:52.578Z,34.50
2022-11-28T22:08:21.059Z,36.07
2022-11-28T22:10:49.505Z,37.87
2022-11-28T22:13:18.306Z,37.80
2022-11-28T22:15:46.792Z,36.77
2022-11-28T22:18:15.785Z,37.97
2022-11-28T22:20:50.215Z,36.07
2022-11-28T22:23:21.292Z,37.27
2022-11-28T22:25:53.276Z,38.47
2022-11-28T22:28:22.075Z,38.80
2022-11-28T22:30:50.505Z,37.97
2022-11-28T22:33:20.256Z,35.77
2022-11-28T22:35:50.116Z,33.87
2022-11-28T22:38:18.855Z,34.50
2022-11-28T22:40:47.387Z,34.63
2022-11-28T22:43:15.844Z,34.13
2022-11-28T22:45:44.357Z,33.93
2022-11-28T22:48:12.787Z,35.33
2022-11-28T22:50:41.365Z,33.13
2022-11-28T22:53:11.321Z,31.00
2022-11-28T22:55:39.833Z,32.60
2022-11-28T22:58:08.310Z,32.07
2022-11-28T23:00:37.206Z,32.87
2022-11-28T23:03:05.817Z,32.03
2022-11-28T23:05:34.478Z,31.50
2022-11-28T23:08:02.876Z,33.03
2022-11-28T23:10:32.851Z,32.00
2022-11-28T23:13:01.245Z,30.83
2022-11-28T23:15:29.739Z,30.30
2022-11-28T23:17:58.275Z,32.60
2022-11-28T23:20:27.923Z,31.07
2022-11-28T23:22:56.369Z,30.17
2022-11-28T23:25:24.751Z,30.83
2022-11-28T23:27:54.448Z,31.37
2022-11-28T23:30:22.909Z,29.97
2022-11-28T23:32:51.348Z,30.83
2022-11-28T23:35:19.856Z,30.80
2022-11-28T23:37:48.412Z,31.23
2022-11-28T23:40:16.989Z,32.73
2022-11-28T23:42:46.083Z,30.30
2022-11-28T23:45:16.187Z,30.10
2022-11-28T23:47:44.635Z,30.87
2022-11-28T23:50:13.775Z,30.67
2022-11-28T23:52:42.177Z,30.00
2022-11-28T23:55:10.946Z,30.67
2022-11-28T23:57:39.378Z,30.07
